createdAt,value
2019-05-20T00:01:11.253Z,9.48
2019-05-20T00:06:12.970Z,7.25
2019-05-20T00:11:16.935Z,7.67
2019-05-20T00:16:18.648Z,9.05
2019-05-20T00:21:20.223Z,7.33
2019-05-20T00:26:22.054Z,8.33
2019-05-20T00:31:23.984Z,8.75
2019-05-20T00:36:25.668Z,13.45
2019-05-20T00:41:27.249Z,8.80
2019-05-20T00:46:30.765Z,8.00
2019-05-20T00:51:32.420Z,8.48
2019-05-20T00:56:34.886Z,8.73
2019-05-20T01:01:36.448Z,8.80
2019-05-20T01:06:38.110Z,8.13
2019-05-20T01:11:39.689Z,8.08
2019-05-20T01:16:41.244Z,7.42
2019-05-20T01:21:42.776Z,7.47
2019-05-20T01:26:44.340Z,8.58
2019-05-20T01:31:45.905Z,8.65
2019-05-20T01:36:47.582Z,9.15
2019-05-20T01:41:49.133Z,8.75
2019-05-20T01:46:50.718Z,7.72
2019-05-20T01:51:52.260Z,7.83
2019-05-20T01:56:53.910Z,7.83
2019-05-20T02:01:55.487Z,8.40
2019-05-20T02:06:57.153Z,8.40
2019-05-20T02:11:58.710Z,9.93
2019-05-20T02:17:02.643Z,8.08
2019-05-20T02:22:03.745Z,8.77
2019-05-20T02:27:05.393Z,9.50
2019-05-20T02:32:06.929Z,7.97
2019-05-20T02:37:08.510Z,8.65
2019-05-20T02:42:10.050Z,9.30
2019-05-20T02:47:11.604Z,8.03
2019-05-20T02:52:13.154Z,9.18
2019-05-20T02:57:14.733Z,10.95
2019-05-20T03:02:16.276Z,8.87
2019-05-20T03:07:17.836Z,9.07
2019-05-20T03:12:19.499Z,9.10
2019-05-20T03:17:21.056Z,8.57
2019-05-20T03:22:22.622Z,7.67
2019-05-20T03:27:24.194Z,10.15
2019-05-20T03:32:25.852Z,10.13
2019-05-20T03:37:27.419Z,8.88
2019-05-20T03:42:28.969Z,9.10
2019-05-20T03:47:30.646Z,8.80
2019-05-20T03:52:32.249Z,8.00
2019-05-20T03:57:33.803Z,9.00
2019-05-20T04:02:35.353Z,9.45
2019-05-20T04:07:36.962Z,7.90
2019-05-20T04:12:38.503Z,9.43
2019-05-20T04:17:40.141Z,9.75
2019-05-20T04:22:41.718Z,9.23
2019-05-20T04:27:43.432Z,9.27
2019-05-20T04:32:45.058Z,8.13
2019-05-20T04:37:46.608Z,8.40
2019-05-20T04:42:48.172Z,12.60
2019-05-20T04:47:49.752Z,9.08
2019-05-20T04:52:51.441Z,8.70
2019-05-20T04:57:53.009Z,10.98
2019-05-20T05:02:54.607Z,14.45
2019-05-20T05:07:56.289Z,11.08
2019-05-20T05:12:57.948Z,12.53
2019-05-20T05:17:59.636Z,12.20
2019-05-20T05:23:01.305Z,11.20
2019-05-20T05:28:02.972Z,12.18
2019-05-20T05:33:04.543Z,13.10
2019-05-20T05:38:06.360Z,12.78
2019-05-20T05:43:08.027Z,13.03
2019-05-20T05:48:09.837Z,13.48
2019-05-20T05:53:11.401Z,14.35
2019-05-20T05:58:13.011Z,15.68
2019-05-20T06:03:14.652Z,13.00
2019-05-20T06:08:16.197Z,12.70
2019-05-20T06:13:17.784Z,13.88
2019-05-20T06:18:19.487Z,12.95
2019-05-20T06:23:21.164Z,12.88
2019-05-20T06:28:22.846Z,13.55
2019-05-20T06:33:24.411Z,14.68
2019-05-20T06:38:43.422Z,13.88
2019-05-20T06:43:45.058Z,15.05
2019-05-20T06:48:46.800Z,12.85
2019-05-20T06:53:48.502Z,13.40
2019-05-20T06:58:50.226Z,14.10
2019-05-20T07:03:51.823Z,14.60
2019-05-20T07:08:53.527Z,14.85
2019-05-20T07:13:55.107Z,13.35
2019-05-20T07:18:56.693Z,14.13
2019-05-20T07:23:58.293Z,11.48
2019-05-20T07:28:59.893Z,12.28
2019-05-20T07:34:01.601Z,14.30
2019-05-20T07:39:05.277Z,11.68
2019-05-20T07:44:06.886Z,11.97
2019-05-20T07:49:09.079Z,12.68
2019-05-20T07:54:11.295Z,11.85
2019-05-20T07:59:14.676Z,9.93
2019-05-20T08:04:16.462Z,11.65
2019-05-20T08:09:18.050Z,12.45
2019-05-20T08:14:19.755Z,13.13
2019-05-20T08:19:24.057Z,14.65
2019-05-20T08:24:25.766Z,13.55
2019-05-20T08:29:27.490Z,13.78
2019-05-20T08:34:29.330Z,11.95
2019-05-20T08:39:31.032Z,11.45
2019-05-20T08:44:32.683Z,11.68
2019-05-20T08:49:34.715Z,13.90
2019-05-20T08:54:40.144Z,12.93
2019-05-20T08:59:40.169Z,11.50
2019-05-20T09:04:41.741Z,14.47
2019-05-20T09:09:43.318Z,10.58
2019-05-20T09:14:44.987Z,14.10
2019-05-20T09:19:47.178Z,11.78
2019-05-20T09:24:49.459Z,11.65
2019-05-20T09:29:51.273Z,12.13
2019-05-20T09:34:53.337Z,14.80
2019-05-20T09:39:55.019Z,10.18
2019-05-20T09:44:56.718Z,10.70
2019-05-20T09:49:58.425Z,9.85
2019-05-20T09:55:00.026Z,11.68
2019-05-20T10:00:01.999Z,10.30
2019-05-20T10:05:04.247Z,8.35
2019-05-20T10:10:06.116Z,9.33
2019-05-20T10:15:08.735Z,12.47
2019-05-20T10:20:10.816Z,10.13
2019-05-20T10:25:12.578Z,10.98
2019-05-20T10:30:15.552Z,10.82
2019-05-20T10:35:17.298Z,11.12
2019-05-20T10:40:19.048Z,13.20
2019-05-20T10:45:20.630Z,12.00
2019-05-20T10:50:22.159Z,11.33
2019-05-20T10:55:23.722Z,11.12
2019-05-20T11:00:25.486Z,15.55
2019-05-20T11:05:27.122Z,10.58
2019-05-20T11:10:28.698Z,12.35
2019-05-20T11:15:30.338Z,9.55
2019-05-20T11:20:31.906Z,10.50
2019-05-20T11:25:33.726Z,9.95
2019-05-20T11:30:35.277Z,9.08
2019-05-20T11:35:36.982Z,11.00
2019-05-20T11:40:38.822Z,9.25
2019-05-20T11:45:40.379Z,9.88
2019-05-20T11:50:41.930Z,10.78
2019-05-20T11:55:43.477Z,8.83
2019-05-20T12:00:45.059Z,8.75
2019-05-20T12:05:46.608Z,8.40
2019-05-20T12:10:48.143Z,8.08
2019-05-20T12:15:49.688Z,10.93
2019-05-20T12:20:51.259Z,7.83
2019-05-20T12:25:52.935Z,9.30
2019-05-20T12:30:55.230Z,8.35
2019-05-20T12:35:56.782Z,8.90
2019-05-20T12:40:58.333Z,8.25
2019-05-20T12:45:59.913Z,9.73
2019-05-20T12:51:01.547Z,9.30
2019-05-20T12:56:03.346Z,9.00
2019-05-20T13:01:05.001Z,8.70
2019-05-20T13:06:06.540Z,8.53
2019-05-20T13:11:08.199Z,9.73
2019-05-20T13:16:09.849Z,10.82
2019-05-20T13:21:11.618Z,9.78
2019-05-20T13:26:13.233Z,9.88
2019-05-20T13:31:14.914Z,10.32
2019-05-20T13:36:16.471Z,10.98
2019-05-20T13:41:18.134Z,10.40
2019-05-20T13:46:19.704Z,13.88
2019-05-20T13:51:21.262Z,9.83
2019-05-20T13:56:22.812Z,8.65
2019-05-20T14:01:24.525Z,9.30
2019-05-20T14:06:26.086Z,8.50
2019-05-20T14:11:34.702Z,7.85
2019-05-20T14:16:31.081Z,7.10
2019-05-20T14:21:32.752Z,6.40
2019-05-20T14:26:34.403Z,8.48
2019-05-20T14:31:36.082Z,5.53
2019-05-20T14:36:40.193Z,4.58
2019-05-20T14:41:41.187Z,4.90
2019-05-20T14:46:42.769Z,5.60
2019-05-20T14:51:44.342Z,5.22
2019-05-20T14:56:45.917Z,4.53
2019-05-20T15:01:47.528Z,5.85
2019-05-20T15:06:49.306Z,5.65
2019-05-20T15:11:50.970Z,5.03
2019-05-20T15:16:52.620Z,4.87
2019-05-20T15:21:54.324Z,5.65
2019-05-20T15:26:56.188Z,5.62
2019-05-20T15:31:57.771Z,6.20
2019-05-20T15:36:59.919Z,5.12
2019-05-20T15:42:01.713Z,5.47
2019-05-20T15:47:03.598Z,5.92
2019-05-20T15:52:05.286Z,5.87
2019-05-20T15:57:06.838Z,5.15
2019-05-20T16:02:08.589Z,5.40
2019-05-20T16:07:11.706Z,6.75
2019-05-20T16:12:13.397Z,7.67
2019-05-20T16:17:15.068Z,8.75
2019-05-20T16:22:16.731Z,4.90
2019-05-20T16:27:18.377Z,5.40
2019-05-20T16:32:19.944Z,5.65
2019-05-20T16:37:21.522Z,8.70
2019-05-20T16:42:23.175Z,5.50
2019-05-20T16:47:24.887Z,6.47
2019-05-20T16:52:26.444Z,7.58
2019-05-20T16:57:28.183Z,6.92
2019-05-20T17:02:29.926Z,6.62
2019-05-20T17:07:31.591Z,6.30
2019-05-20T17:12:33.262Z,6.72
2019-05-20T17:17:34.888Z,6.92
2019-05-20T17:22:36.621Z,6.20
2019-05-20T17:27:38.223Z,7.97
2019-05-20T17:32:39.933Z,5.55
2019-05-20T17:37:41.592Z,6.58
2019-05-20T17:42:43.280Z,5.95
2019-05-20T17:47:45.026Z,5.50
2019-05-20T17:52:46.589Z,5.83
2019-05-20T17:57:48.177Z,6.72
2019-05-20T18:02:49.773Z,7.10
2019-05-20T18:07:51.363Z,5.42
2019-05-20T18:12:53.053Z,8.43
2019-05-20T18:17:54.649Z,11.63
2019-05-20T18:22:56.213Z,5.78
2019-05-20T18:27:57.945Z,6.20
2019-05-20T18:32:59.493Z,6.65
2019-05-20T18:38:01.203Z,7.50
2019-05-20T18:43:03.738Z,8.75
2019-05-20T18:48:05.331Z,7.35
2019-05-20T18:53:07.105Z,11.53
2019-05-20T18:58:08.760Z,7.17
2019-05-20T19:03:10.640Z,6.15
2019-05-20T19:08:12.546Z,8.05
2019-05-20T19:13:14.521Z,7.60
2019-05-20T19:18:16.066Z,10.32
2019-05-20T19:23:17.756Z,7.78
2019-05-20T19:28:19.331Z,6.67
2019-05-20T19:33:21.116Z,7.78
2019-05-20T19:38:22.692Z,10.08
2019-05-20T19:43:24.351Z,8.13
2019-05-20T19:48:25.903Z,9.18
2019-05-20T19:53:27.493Z,9.48
2019-05-20T19:58:29.040Z,11.35
2019-05-20T20:03:30.599Z,8.80
2019-05-20T20:08:32.280Z,11.80
2019-05-20T20:13:34.590Z,9.08
2019-05-20T20:18:36.425Z,9.30
2019-05-20T20:23:38.021Z,10.80
2019-05-20T20:28:39.535Z,10.23
2019-05-20T20:33:41.108Z,11.05
2019-05-20T20:38:42.769Z,12.93
2019-05-20T20:43:44.336Z,9.05
2019-05-20T20:48:45.897Z,9.73
2019-05-20T20:53:47.439Z,7.97
2019-05-20T20:58:49.101Z,8.43
2019-05-20T21:03:50.655Z,8.98
2019-05-20T21:08:52.296Z,7.08
2019-05-20T21:13:53.880Z,8.65
2019-05-20T21:18:55.558Z,8.58
2019-05-20T21:23:57.147Z,8.65
2019-05-20T21:28:58.827Z,8.63
2019-05-20T21:34:00.372Z,7.58
2019-05-20T21:39:01.979Z,6.50
2019-05-20T21:44:03.630Z,6.60
2019-05-20T21:49:05.292Z,9.00
2019-05-20T21:54:06.828Z,7.58
2019-05-20T21:59:08.383Z,9.45
2019-05-20T22:04:09.941Z,9.63
2019-05-20T22:09:11.496Z,10.13
2019-05-20T22:14:13.036Z,8.30
2019-05-20T22:19:14.654Z,9.40
2019-05-20T22:24:16.316Z,11.35
2019-05-20T22:29:17.889Z,8.40
2019-05-20T22:34:19.446Z,7.45
2019-05-20T22:39:21.086Z,9.13
2019-05-20T22:44:22.653Z,8.05
2019-05-20T22:49:24.199Z,9.25
2019-05-20T22:54:25.757Z,8.25
2019-05-20T22:59:27.310Z,7.78
2019-05-20T23:04:28.869Z,10.35
2019-05-20T23:09:30.525Z,8.05
2019-05-20T23:14:32.072Z,8.97
2019-05-20T23:19:33.761Z,10.78
2019-05-20T23:24:35.309Z,10.70
2019-05-20T23:29:36.989Z,8.78
2019-05-20T23:34:38.632Z,13.60
2019-05-20T23:39:40.182Z,10.08
2019-05-20T23:44:41.725Z,7.17
2019-05-20T23:49:43.275Z,9.18
2019-05-20T23:54:44.844Z,9.13
2019-05-20T23:59:46.529Z,11.70
